Time;durP1;ratioP1;P1;durP2;ratioP2;P2;SDS_P1;SDS_P2;PMS_P1;PMS_P2;Temp;Humidity;BMP_temperature;BMP_pressure;BME280_temperature;BME280_humidity;BME280_pressure;Samples;Min_cycle;Max_cycle;Signal;HPM_P1;HPM_P2
2022/03/24 05:02:04;;;;;;;18.93;11.63;;;3.40;99.90;;;;;;5223331;23;20504;-80
2022/03/24 05:04:31;;;;;;;23.17;12.37;;;3.40;99.90;;;;;;4970235;28;20453;-80
2022/03/24 05:06:58;;;;;;;21.20;12.90;;;3.40;99.90;;;;;;4969502;28;20468;-80
2022/03/24 05:09:25;;;;;;;17.90;11.90;;;3.40;99.90;;;;;;4971588;28;20495;-80
2022/03/24 05:11:52;;;;;;;21.00;12.10;;;3.40;99.90;;;;;;4971427;28;20503;-80
2022/03/24 05:14:19;;;;;;;20.13;12.03;;;3.40;99.90;;;;;;4971211;28;20581;-80
2022/03/24 05:16:46;;;;;;;18.37;12.00;;;3.40;99.90;;;;;;4969689;28;20461;-80
2022/03/24 05:19:14;;;;;;;23.80;12.33;;;3.40;99.90;;;;;;4968359;28;20476;-80
2022/03/24 05:21:41;;;;;;;23.00;13.30;;;3.40;99.90;;;;;;4968021;28;20497;-80
2022/03/24 05:24:08;;;;;;;20.70;12.17;;;3.40;99.90;;;;;;4970183;28;20464;-80
2022/03/24 05:26:34;;;;;;;19.77;11.63;;;3.40;99.90;;;;;;4970428;28;20456;-81
2022/03/24 05:29:01;;;;;;;27.90;11.20;;;3.40;99.90;;;;;;4972173;28;20452;-81
2022/03/24 05:31:28;;;;;;;18.57;11.67;;;3.40;99.90;;;;;;4970672;28;20476;-81
2022/03/24 05:33:55;;;;;;;21.20;13.10;;;3.40;99.90;;;;;;4970692;28;20847;-81
2022/03/24 05:36:24;;;;;;;21.17;12.30;;;3.30;99.90;;;;;;4970152;28;20539;-81
2022/03/24 05:38:51;;;;;;;18.00;12.20;;;3.30;99.90;;;;;;4970480;28;20539;-81
2022/03/24 05:41:18;;;;;;;20.10;12.53;;;3.30;99.90;;;;;;4967438;28;20492;-74
2022/03/24 05:44:02;;;;;;;19.63;13.00;;;3.30;99.90;;;;;;4965745;28;20532;-74
2022/03/24 05:46:29;;;;;;;29.03;13.63;;;3.20;99.90;;;;;;4963540;28;20474;-74
2022/03/24 05:48:56;;;;;;;23.87;13.00;;;3.20;99.90;;;;;;4965940;28;20460;-76
2022/03/24 05:51:24;;;;;;;20.80;13.33;;;3.20;99.90;;;;;;4963874;28;20479;-76
2022/03/24 05:53:51;;;;;;;21.70;12.40;;;3.20;99.90;;;;;;4965236;28;20460;-76
2022/03/24 05:56:18;;;;;;;17.33;12.70;;;3.20;99.90;;;;;;4959716;28;20453;-76
2022/03/24 05:58:45;;;;;;;22.50;13.80;;;3.10;99.90;;;;;;4965744;28;20957;-76
2022/03/24 06:01:13;;;;;;;22.27;13.40;;;3.10;99.90;;;;;;4965267;28;20496;-77
2022/03/24 06:03:42;;;;;;;22.30;12.37;;;3.10;99.90;;;;;;4965264;28;20476;-74
2022/03/24 06:06:09;;;;;;;23.10;13.30;;;3.10;99.90;;;;;;4965217;28;20545;-74
2022/03/24 06:08:38;;;;;;;19.37;12.30;;;3.10;99.90;;;;;;4964189;28;20461;-75
2022/03/24 06:11:05;;;;;;;17.30;10.90;;;3.10;99.90;;;;;;4965787;28;20472;-74
2022/03/24 06:13:32;;;;;;;19.43;12.23;;;3.10;99.90;;;;;;4965161;28;20556;-74
2022/03/24 06:16:01;;;;;;;28.93;13.10;;;3.10;99.90;;;;;;4965005;28;20457;-74
2022/03/24 06:18:28;;;;;;;24.67;11.90;;;3.00;99.90;;;;;;4964521;28;20457;-74
2022/03/24 06:20:55;;;;;;;21.47;13.30;;;2.90;99.90;;;;;;4965014;28;20511;-75
2022/03/24 06:23:22;;;;;;;22.50;12.50;;;2.90;99.90;;;;;;4964786;28;20543;-75
2022/03/24 06:25:50;;;;;;;22.10;12.40;;;3.00;99.90;;;;;;4964553;28;20457;-74
2022/03/24 06:28:17;;;;;;;22.97;13.40;;;3.00;99.90;;;;;;4963845;28;21028;-75
2022/03/24 06:30:44;;;;;;;22.03;13.00;;;3.10;99.90;;;;;;4964772;28;20472;-74
2022/03/24 06:33:12;;;;;;;20.60;12.50;;;3.20;99.90;;;;;;4964757;28;20491;-75
2022/03/24 06:35:38;;;;;;;22.30;12.53;;;3.20;99.90;;;;;;4964754;28;20467;-75
2022/03/24 06:38:07;;;;;;;20.13;12.33;;;3.30;99.90;;;;;;4964091;28;20953;-75
2022/03/24 06:40:34;;;;;;;22.80;13.37;;;3.30;99.90;;;;;;4965145;28;20472;-76
2022/03/24 06:43:02;;;;;;;18.90;12.63;;;3.40;99.90;;;;;;4961809;28;20496;-75
2022/03/24 06:45:29;;;;;;;22.97;13.67;;;3.50;99.90;;;;;;4965255;28;20956;-75
2022/03/24 06:47:55;;;;;;;18.80;12.50;;;3.50;99.90;;;;;;4966665;28;20461;-75
2022/03/24 06:50:22;;;;;;;23.93;12.83;;;3.60;99.90;;;;;;4966879;28;20480;-75
2022/03/24 06:52:50;;;;;;;19.37;12.63;;;3.60;99.90;;;;;;4968261;28;20459;-75
2022/03/24 06:55:17;;;;;;;23.77;14.23;;;3.70;99.90;;;;;;4967842;28;21384;-76
2022/03/24 06:57:44;;;;;;;23.63;13.60;;;3.70;99.90;;;;;;4967178;28;20455;-76
2022/03/24 07:00:15;;;;;;;22.60;13.80;;;3.80;99.90;;;;;;4967637;28;20828;-75
2022/03/24 07:02:42;;;;;;;23.23;14.90;;;3.80;99.90;;;;;;4968821;28;20518;-75
2022/03/24 07:05:09;;;;;;;32.43;16.17;;;3.90;99.90;;;;;;4967842;28;20526;-76
2022/03/24 07:07:36;;;;;;;24.40;13.90;;;4.00;99.90;;;;;;4967062;28;20555;-76
2022/03/24 07:10:02;;;;;;;27.00;14.43;;;4.00;99.90;;;;;;4968493;28;21167;-76
2022/03/24 07:12:29;;;;;;;30.80;15.90;;;4.10;99.90;;;;;;4967553;28;20468;-76
2022/03/24 07:14:56;;;;;;;24.30;15.47;;;4.20;99.90;;;;;;4968284;28;20878;-77
2022/03/24 07:17:24;;;;;;;21.50;14.77;;;4.30;99.90;;;;;;4966171;28;20461;-77
2022/03/24 07:19:51;;;;;;;24.57;14.60;;;4.30;99.90;;;;;;4966818;28;21010;-76
2022/03/24 07:22:18;;;;;;;19.90;13.20;;;4.40;99.90;;;;;;4971777;28;20496;-76
2022/03/24 07:24:46;;;;;;;23.23;14.50;;;4.50;99.90;;;;;;4970602;28;20969;-71
2022/03/24 07:27:14;;;;;;;24.90;14.37;;;4.50;99.90;;;;;;4965679;28;20465;-77
2022/03/24 07:29:42;;;;;;;25.13;15.07;;;4.60;99.90;;;;;;4967912;28;21360;-77
2022/03/24 07:32:09;;;;;;;21.97;13.50;;;4.70;99.90;;;;;;4965910;28;20475;-75
2022/03/24 07:34:37;;;;;;;26.27;13.83;;;4.70;99.90;;;;;;4969409;28;20461;-77
2022/03/24 07:37:05;;;;;;;23.87;14.23;;;4.80;99.90;;;;;;4970355;28;20540;-76
2022/03/24 07:39:33;;;;;;;24.10;14.07;;;4.90;99.90;;;;;;4969860;28;20463;-77
2022/03/24 07:42:00;;;;;;;20.03;13.50;;;5.00;99.90;;;;;;4969356;28;20500;-66
2022/03/24 07:44:27;;;;;;;23.80;14.03;;;5.10;99.90;;;;;;4967748;28;20454;-76
2022/03/24 07:46:53;;;;;;;21.07;12.77;;;5.20;99.90;;;;;;4968088;28;20467;-76
2022/03/24 07:49:20;;;;;;;24.00;13.73;;;5.40;99.90;;;;;;4968763;28;20466;-76
2022/03/24 07:51:49;;;;;;;21.90;14.13;;;5.60;99.90;;;;;;4968383;28;20488;-77
2022/03/24 07:54:16;;;;;;;26.00;14.70;;;5.80;99.90;;;;;;4970185;28;20465;-77
2022/03/24 07:56:43;;;;;;;23.30;14.57;;;5.90;99.90;;;;;;4968499;28;20540;-77
2022/03/24 07:59:10;;;;;;;21.10;13.50;;;6.10;99.90;;;;;;4970763;28;20937;-77
2022/03/24 08:01:38;;;;;;;20.40;13.30;;;6.30;99.90;;;;;;4969495;28;21098;-77
2022/03/24 08:04:06;;;;;;;23.80;13.87;;;6.60;99.90;;;;;;4968747;28;20449;-77
2022/03/24 08:06:35;;;;;;;20.73;13.53;;;6.80;99.90;;;;;;4968110;28;20465;-77
2022/03/24 08:09:03;;;;;;;22.17;13.23;;;6.80;99.90;;;;;;4970431;28;20540;-77
2022/03/24 08:11:30;;;;;;;19.50;13.80;;;7.10;99.90;;;;;;4968624;28;20536;-78
2022/03/24 08:13:57;;;;;;;21.93;13.33;;;7.30;99.90;;;;;;4965291;28;20449;-78
2022/03/24 08:16:25;;;;;;;21.57;14.17;;;7.40;99.90;;;;;;4970367;28;20476;-78
2022/03/24 08:18:53;;;;;;;22.93;13.73;;;7.50;99.90;;;;;;4969990;28;20461;-77
2022/03/24 08:21:20;;;;;;;23.10;13.57;;;7.80;99.90;;;;;;4969768;28;20594;-77
2022/03/24 08:23:47;;;;;;;19.63;13.53;;;7.90;99.90;;;;;;4968049;28;20620;-77
2022/03/24 08:26:15;;;;;;;18.60;13.60;;;8.10;99.90;;;;;;4965991;28;20457;-77
2022/03/24 08:28:42;;;;;;;24.73;15.03;;;8.30;98.60;;;;;;4966712;28;20511;-77
2022/03/24 08:31:09;;;;;;;27.00;14.67;;;8.50;99.20;;;;;;4967904;28;20480;-77
2022/03/24 08:33:36;;;;;;;30.43;15.40;;;8.80;99.40;;;;;;4968426;28;21301;-77
2022/03/24 08:36:03;;;;;;;23.77;15.30;;;9.40;99.90;;;;;;4968721;28;20456;-77
2022/03/24 08:38:30;;;;;;;22.63;15.33;;;9.70;98.00;;;;;;4967858;28;20551;-77
2022/03/24 08:40:57;;;;;;;25.87;14.57;;;9.80;99.40;;;;;;4968335;28;20481;-77
2022/03/24 08:43:25;;;;;;;25.70;16.67;;;10.10;99.50;;;;;;4968750;28;20488;-77
2022/03/24 08:45:52;;;;;;;26.90;15.93;;;10.90;98.70;;;;;;4968227;28;20817;-78
2022/03/24 08:48:19;;;;;;;25.13;15.60;;;11.20;97.00;;;;;;4968452;28;20885;-77
2022/03/24 08:50:46;;;;;;;21.00;14.90;;;11.40;95.30;;;;;;4969062;28;20563;-76
2022/03/24 08:53:12;;;;;;;25.63;15.43;;;11.70;95.90;;;;;;4969030;28;20817;-77
2022/03/24 08:55:40;;;;;;;23.50;15.50;;;12.00;93.50;;;;;;4969083;28;20453;-76
2022/03/24 08:58:08;;;;;;;22.37;16.63;;;12.10;93.70;;;;;;4968364;28;20976;-77
2022/03/24 09:00:36;;;;;;;27.80;16.40;;;12.10;91.20;;;;;;4968342;28;20484;-77
2022/03/24 09:03:04;;;;;;;25.77;16.07;;;12.00;90.40;;;;;;4967682;28;20496;-76
2022/03/24 09:05:31;;;;;;;25.80;15.57;;;11.90;90.60;;;;;;4967552;28;20453;-76
2022/03/24 09:08:04;;;;;;;26.30;15.70;;;12.00;91.30;;;;;;4965619;28;20532;-77
2022/03/24 09:10:32;;;;;;;27.93;15.57;;;12.30;90.20;;;;;;4967420;28;21854;-77
2022/03/24 09:12:59;;;;;;;25.60;16.63;;;12.40;88.20;;;;;;4967451;28;20468;-77
2022/03/24 09:15:26;;;;;;;26.20;16.10;;;12.50;88.20;;;;;;4968019;28;20480;-77
2022/03/24 09:17:54;;;;;;;26.10;16.57;;;12.60;85.80;;;;;;4968152;28;20485;-77
2022/03/24 09:20:23;;;;;;;23.90;15.93;;;12.70;85.10;;;;;;4968056;28;20470;-77
2022/03/24 09:22:50;;;;;;;37.13;17.50;;;12.80;86.50;;;;;;4967135;28;21435;-76
2022/03/24 09:25:18;;;;;;;32.33;17.60;;;13.00;83.20;;;;;;4969534;28;20528;-77
2022/03/24 09:27:46;;;;;;;24.47;17.03;;;13.10;82.00;;;;;;4966403;28;21149;-77
2022/03/24 09:30:18;;;;;;;23.13;16.00;;;13.40;81.90;;;;;;4968416;28;20462;-77
2022/03/24 09:32:45;;;;;;;23.50;16.80;;;13.60;77.10;;;;;;4968434;28;20460;-76
2022/03/24 09:35:14;;;;;;;28.60;18.10;;;14.10;81.90;;;;;;4967834;28;20460;-77
2022/03/24 09:37:42;;;;;;;26.67;16.23;;;14.40;76.60;;;;;;4967313;28;20477;-76
2022/03/24 09:40:10;;;;;;;22.43;16.20;;;14.40;73.00;;;;;;4967161;28;20453;-77
2022/03/24 09:42:38;;;;;;;25.10;16.80;;;14.50;72.50;;;;;;4968580;28;20611;-75
2022/03/24 09:45:07;;;;;;;26.17;17.43;;;14.60;72.70;;;;;;4967709;28;20968;-76
2022/03/24 09:47:35;;;;;;;26.17;18.20;;;14.60;74.60;;;;;;4966469;28;20462;-78
2022/03/24 09:50:02;;;;;;;23.37;16.10;;;14.70;74.10;;;;;;4967646;28;20465;-68
2022/03/24 09:52:30;;;;;;;25.33;16.27;;;15.00;73.30;;;;;;4964607;28;20551;-68
2022/03/24 09:54:57;;;;;;;22.67;17.17;;;15.20;72.50;;;;;;4965666;28;20461;-70
2022/03/24 09:57:25;;;;;;;25.53;16.87;;;15.50;71.80;;;;;;4964965;28;20460;-69
2022/03/24 09:59:52;;;;;;;22.30;16.70;;;15.80;69.40;;;;;;4965812;28;20449;-70
2022/03/24 10:02:19;;;;;;;24.20;16.57;;;16.00;72.40;;;;;;4965625;28;20587;-70
2022/03/24 10:04:48;;;;;;;22.57;17.33;;;16.40;67.40;;;;;;4965002;28;20980;-68
2022/03/24 10:07:16;;;;;;;25.17;17.50;;;16.40;67.90;;;;;;4964114;28;20535;-67
2022/03/24 10:09:46;;;;;;;24.70;16.73;;;16.40;67.60;;;;;;4965258;28;20952;-67
2022/03/24 10:12:21;;;;;;;23.20;16.60;;;16.40;67.30;;;;;;4965606;28;20563;-68
2022/03/24 10:14:59;;;;;;;23.80;17.63;;;16.40;69.20;;;;;;4965186;28;20458;-70
2022/03/24 10:17:26;;;;;;;27.60;18.17;;;16.60;67.80;;;;;;4965031;28;20452;-70
2022/03/24 10:19:57;;;;;;;24.90;17.10;;;16.80;69.10;;;;;;4967660;28;20468;-70
2022/03/24 10:22:24;;;;;;;25.97;18.97;;;16.80;68.10;;;;;;4967870;28;21024;-70
2022/03/24 10:24:53;;;;;;;26.43;18.10;;;17.20;68.70;;;;;;4967270;28;21543;-70
2022/03/24 10:27:24;;;;;;;25.60;17.60;;;17.30;68.70;;;;;;4967861;28;20560;-70
2022/03/24 10:29:55;;;;;;;21.60;16.47;;;17.30;68.00;;;;;;4967497;28;20456;-70
2022/03/24 10:32:26;;;;;;;25.33;17.70;;;17.30;68.30;;;;;;4967337;28;20470;-70
2022/03/24 10:34:58;;;;;;;24.90;17.83;;;17.40;67.80;;;;;;4969374;28;20539;-71
2022/03/24 10:37:27;;;;;;;27.97;18.50;;;17.80;69.50;;;;;;4968669;28;21089;-71
2022/03/24 10:40:02;;;;;;;24.77;17.70;;;18.10;68.10;;;;;;4968494;28;20961;-70
2022/03/24 10:42:32;;;;;;;21.93;17.80;;;18.30;68.30;;;-143.14;100.00;56521.75;4968512;28;20578;-70
2022/03/24 10:45:10;;;;;;;25.80;17.87;;;18.70;69.10;;;-143.14;100.00;56521.75;4968713;28;20472;-67
2022/03/24 10:47:40;;;;;;;28.43;17.00;;;19.10;65.80;;;-143.14;100.00;56521.75;4965103;28;20491;-67
2022/03/24 10:50:30;;;;;;;26.70;15.97;;;19.20;66.40;;;-143.14;100.00;56521.75;4968637;28;20463;-67
2022/03/24 10:53:00;;;;;;;22.50;17.17;;;19.10;64.80;;;;;;4968036;28;20449;-67
2022/03/24 10:55:55;;;;;;;24.13;16.57;;;19.00;65.20;;;;;;4968294;28;20454;-67
2022/03/24 10:58:27;;;;;;;22.83;16.33;;;19.00;65.70;;;;;;4960093;28;20511;-67
2022/03/24 11:00:56;;;;;;;23.90;15.80;;;19.20;67.10;;;;;;4968005;28;20480;-67
2022/03/24 11:03:23;;;;;;;22.33;16.00;;;19.40;62.80;;;;;;4968528;28;20869;-67
2022/03/24 11:05:51;;;;;;;21.40;15.23;;;19.70;64.10;;;;;;4968306;28;20465;-67
2022/03/24 11:08:19;;;;;;;22.57;14.90;;;20.00;64.20;;;-143.14;nan;56521.75;4967448;28;20464;-67
2022/03/24 11:10:48;;;;;;;19.87;15.97;;;20.30;62.90;;;;;;4965974;28;21052;-67
2022/03/24 11:13:26;;;;;;;23.13;16.80;;;20.70;60.00;;;;;;4968353;28;20475;-67
2022/03/24 11:15:54;;;;;;;22.37;17.07;;;20.70;58.00;;;;;;4968302;28;20484;-70
2022/03/24 11:18:23;;;;;;;19.30;15.67;;;20.60;57.50;;;;;;4967837;28;20460;-70
2022/03/24 11:20:51;;;;;;;23.53;16.20;;;20.30;57.10;;;;;;4965971;28;21007;-71
2022/03/24 11:23:34;;;;;;;25.27;16.87;;;20.30;58.20;;;;;;4967311;28;20495;-71
2022/03/24 11:26:02;;;;;;;22.03;15.90;;;20.30;59.30;;;;;;4966267;28;20458;-71
2022/03/24 11:28:31;;;;;;;20.90;16.23;;;20.30;59.30;;;;;;4966963;28;20456;-71
2022/03/24 11:30:58;;;;;;;20.60;16.80;;;20.30;58.70;;;;;;4968039;28;20481;-71
2022/03/24 11:33:26;;;;;;;21.27;16.60;;;20.30;58.40;;;;;;4968381;28;20543;-67
2022/03/24 11:35:53;;;;;;;26.73;16.90;;;20.40;60.50;;;;;;4967255;28;20781;-68
2022/03/24 11:38:21;;;;;;;19.03;16.33;;;21.20;59.90;;;;;;4966722;28;20456;-67
2022/03/24 11:40:48;;;;;;;27.73;17.83;;;21.50;59.00;;;;;;4967617;28;20581;-71
2022/03/24 11:43:18;;;;;;;22.97;16.67;;;21.30;60.10;;;;;;4965787;28;20536;-72
2022/03/24 11:45:56;;;;;;;22.60;16.50;;;21.40;61.70;;;;;;4967159;28;20460;-72
2022/03/24 11:48:33;;;;;;;28.93;18.33;;;21.40;60.30;;;;;;4966443;28;20457;-78
2022/03/24 11:51:05;;;;;;;26.53;17.60;;;21.40;60.50;;;;;;4968139;28;21067;-78
2022/03/24 11:53:39;;;;;;;22.40;17.00;;;21.30;59.60;;;;;;4967344;28;20463;-77
2022/03/24 11:56:18;;;;;;;31.77;17.03;;;21.70;63.00;;;;;;4966896;28;20480;-77
2022/03/24 11:59:19;;;;;;;23.60;18.00;;;22.10;62.10;;;;;;4966526;28;20456;-77
2022/03/24 12:01:47;;;;;;;23.40;18.03;;;22.10;59.50;;;;;;4958249;28;20919;-77
2022/03/24 12:04:17;;;;;;;26.50;18.20;;;22.00;61.60;;;;;;4963654;28;20524;-76
2022/03/24 12:06:53;;;;;;;28.13;18.43;;;21.90;58.80;;;;;;4964209;28;20453;-77
2022/03/24 12:09:28;;;;;;;24.23;17.90;;;21.80;59.10;;;;;;4961874;28;20471;-77
2022/03/24 12:12:07;;;;;;;20.30;17.00;;;21.70;58.40;;;;;;4967380;28;20583;-77
2022/03/24 12:14:43;;;;;;;23.53;16.40;;;21.80;59.60;;;;;;4970402;28;20460;-76
2022/03/24 12:17:22;;;;;;;23.90;17.10;;;22.00;57.50;;;;;;4969045;28;20543;-77
2022/03/24 12:19:51;;;;;;;23.83;16.50;;;22.20;56.80;;;;;;4970532;28;20452;-78
2022/03/24 12:22:38;;;;;;;28.40;17.13;;;22.30;58.70;;;;;;4970668;28;21075;-77
2022/03/24 12:25:29;;;;;;;21.93;16.03;;;22.40;57.70;;;;;;4970352;28;21039;-77
2022/03/24 12:28:27;;;;;;;28.73;17.00;;;22.50;57.50;;;;;;4967953;28;20456;-78
2022/03/24 12:31:17;;;;;;;24.63;17.50;;;22.60;56.10;;;;;;4969988;28;20480;-77
2022/03/24 12:33:49;;;;;;;21.03;16.80;;;22.70;56.30;;;;;;4958199;28;20452;-76
2022/03/24 12:36:40;;;;;;;22.37;16.80;;;22.90;55.90;;;;;;4965443;28;20548;-77
2022/03/24 12:39:08;;;;;;;21.30;17.17;;;23.00;55.70;;;;;;4971425;28;20461;-79
2022/03/24 12:41:35;;;;;;;21.53;16.87;;;23.20;56.70;;;;;;4971059;28;20596;-77
2022/03/24 12:44:10;;;;;;;23.43;17.30;;;23.30;56.10;;;;;;4972226;28;20492;-77
2022/03/24 12:46:44;;;;;;;20.10;16.80;;;23.30;54.70;;;;;;4966792;28;20451;-78
2022/03/24 12:49:27;;;;;;;18.67;15.27;;;23.40;56.10;;;;;;4971942;28;20544;-78
2022/03/24 12:52:01;;;;;;;18.87;16.17;;;23.70;56.00;;;;;;4970442;28;20488;-78
2022/03/24 12:54:30;;;;;;;25.43;16.67;;;23.70;53.70;;;;;;4972185;28;20463;-78
2022/03/24 12:57:22;;;;;;;21.60;16.20;;;23.70;55.00;;;;;;4967517;28;20579;-78
2022/03/24 12:59:49;;;;;;;19.20;16.43;;;23.80;55.10;;;;;;4970154;28;20957;-78
2022/03/24 13:02:16;;;;;;;22.83;16.80;;;24.00;56.40;;;;;;4973263;28;20480;-78
2022/03/24 13:04:48;;;;;;;19.43;16.33;;;24.20;54.80;;;;;;4970563;28;21032;-77
2022/03/24 13:07:19;;;;;;;21.80;17.30;;;24.20;53.70;;;;;;4969465;28;20461;-78
2022/03/24 13:10:02;;;;;;;20.10;16.70;;;23.90;52.40;;;;;;4966342;28;21047;-69
2022/03/24 13:12:29;;;;;;;19.03;15.63;;;23.80;52.80;;;;;;4961419;28;20527;-70
2022/03/24 13:14:56;;;;;;;21.13;15.30;;;23.80;52.50;;;;;;4965320;28;20539;-66
2022/03/24 13:17:23;;;;;;;23.00;15.60;;;24.00;54.30;;;;;;4965598;28;20465;-69
2022/03/24 13:19:51;;;;;;;20.50;16.57;;;24.00;52.20;;;;;;4965918;28;21024;-77
2022/03/24 13:22:23;;;;;;;19.40;14.70;;;24.00;52.80;;;;;;4965738;28;21407;-73
2022/03/24 13:24:59;;;;;;;21.53;16.13;;;24.20;54.10;;;;;;4961940;28;20564;-72
2022/03/24 13:27:27;;;;;;;24.40;15.13;;;24.30;52.60;;;;;;4964807;28;21087;-69
2022/03/24 13:29:54;;;;;;;20.10;15.30;;;24.20;51.10;;;;;;4965575;28;20459;-74
2022/03/24 13:32:26;;;;;;;18.60;15.93;;;24.00;51.50;;;;;;4966020;28;20472;-64
2022/03/24 13:34:54;;;;;;;18.50;15.17;;;24.10;52.30;;;;;;4965152;28;21016;-74
2022/03/24 13:37:24;;;;;;;20.50;16.13;;;24.20;52.80;;;;;;4964861;28;20461;-73
2022/03/24 13:39:54;;;;;;;17.20;14.67;;;24.10;50.20;;;;;;4964580;28;20829;-73
2022/03/24 13:42:22;;;;;;;19.53;15.13;;;24.10;52.60;;;;;;4957628;28;20927;-75
2022/03/24 13:44:51;;;;;;;18.30;15.00;;;24.30;51.00;;;;;;4965493;28;21020;-74
2022/03/24 13:47:23;;;;;;;17.30;13.70;;;24.10;50.00;;;;;;4965492;28;20460;-74
2022/03/24 13:49:54;;;;;;;25.63;14.40;;;24.10;51.40;;;;;;4964680;28;20453;-74
2022/03/24 13:52:47;;;;;;;18.20;15.17;;;24.30;52.10;;;;;;4968792;28;20472;-73
2022/03/24 13:55:17;;;;;;;22.37;15.90;;;24.50;52.70;;;;;;4949769;28;20492;-74
2022/03/24 13:57:53;;;;;;;25.07;15.77;;;24.70;51.30;;;;;;4968942;28;20539;-75
2022/03/24 14:00:25;;;;;;;18.80;14.53;;;24.50;50.00;;;;;;4959270;28;20480;-73
2022/03/24 14:02:56;;;;;;;18.73;14.13;;;24.50;51.60;;;;;;4969327;28;20547;-73
2022/03/24 14:05:23;;;;;;;14.87;13.27;;;24.60;50.90;;;;;;4969186;28;21075;-71
2022/03/24 14:07:59;;;;;;;24.27;14.63;;;24.80;51.20;;;;;;4967338;28;20456;-73
2022/03/24 14:10:49;;;;;;;56.57;19.33;;;24.90;50.90;;;;;;4968353;28;20453;-73
2022/03/24 14:13:17;;;;;;;18.00;14.57;;;25.10;51.40;;;;;;4969100;28;20901;-73
2022/03/24 14:15:46;;;;;;;20.93;13.50;;;24.90;49.00;;;;;;4966618;28;20539;-73
2022/03/24 14:18:17;;;;;;;19.00;13.87;;;24.90;48.90;;;;;;4968307;28;20467;-73
2022/03/24 14:20:45;;;;;;;16.60;13.23;;;24.90;48.30;;;;;;4966957;28;20478;-73
2022/03/24 14:23:27;;;;;;;24.63;13.90;;;24.90;48.90;;;;;;4967110;28;20460;-73
2022/03/24 14:25:54;;;;;;;436.23;51.17;;;24.80;50.20;;;;;;4969699;28;20456;-71
2022/03/24 14:28:36;;;;;;;45.10;15.70;;;24.90;50.20;;;;;;4968377;28;20444;-69
2022/03/24 14:31:28;;;;;;;16.70;13.43;;;25.00;48.90;;;;;;4969274;28;20468;-68
2022/03/24 14:33:58;;;;;;;20.10;14.30;;;25.00;47.90;;;;;;4962191;28;20559;-72
2022/03/24 14:36:27;;;;;;;17.57;14.10;;;25.00;48.00;;;;;;4963701;28;20466;-67
2022/03/24 14:39:19;;;;;;;20.20;13.33;;;24.90;49.40;;;;;;4960109;28;20587;-66
2022/03/24 14:41:47;;;;;;;18.60;13.80;;;24.90;47.60;;;;;;4959498;28;20540;-67
2022/03/24 14:44:17;;;;;;;17.33;14.30;;;24.70;46.40;;;;;;4964838;28;20488;-67
2022/03/24 14:46:45;;;;;;;16.97;13.50;;;24.90;47.40;;;;;;4960272;28;20880;-68
2022/03/24 14:49:12;;;;;;;18.33;14.17;;;25.00;47.70;;;;;;4958573;28;20464;-68
2022/03/24 14:51:41;;;;;;;15.40;13.13;;;25.20;48.00;;;;;;4965208;28;20472;-69
2022/03/24 14:54:11;;;;;;;21.40;13.37;;;25.10;46.80;;;;;;4967918;28;20448;-69
2022/03/24 14:56:38;;;;;;;14.37;12.37;;;25.10;47.60;;;;;;4968183;28;20552;-69
2022/03/24 14:59:07;;;;;;;15.73;13.53;;;24.80;46.40;;;;;;4968338;28;20449;-69
2022/03/24 15:01:34;;;;;;;16.10;12.47;;;24.60;46.50;;;;;;4968742;28;20484;-69
2022/03/24 15:04:02;;;;;;;15.67;12.60;;;24.50;45.80;;;;;;4967556;28;20494;-66
2022/03/24 15:06:29;;;;;;;17.80;12.60;;;24.40;46.90;;;;;;4962252;28;20467;-66
2022/03/24 15:08:56;;;;;;;18.70;13.20;;;24.30;45.70;;;;;;4967282;28;20476;-69
2022/03/24 15:11:24;;;;;;;13.97;12.47;;;24.20;46.30;;;;;;4968710;28;20555;-73
2022/03/24 15:16:37;;;;;;;15.70;12.43;;;24.20;46.70;;;;;;4967974;28;20460;-79
2022/03/24 15:19:04;;;;;;;16.03;12.37;;;24.30;47.00;;;;;;4968679;28;20456;-76
2022/03/24 15:21:31;;;;;;;28.87;12.70;;;24.30;47.30;;;;;;4968313;28;20846;-76
2022/03/24 15:23:58;;;;;;;13.90;12.00;;;24.40;48.40;;;;;;4965533;28;21020;-76
2022/03/24 15:26:27;;;;;;;22.10;13.03;;;24.40;46.00;;;;;;4967238;28;20903;-80
2022/03/24 15:28:54;;;;;;;18.30;13.37;;;24.40;47.30;;;;;;4968753;28;20461;-79
2022/03/24 15:31:21;;;;;;;14.00;11.97;;;24.20;46.40;;;;;;4968139;28;21064;-77
2022/03/24 15:33:48;;;;;;;15.73;12.53;;;24.20;46.80;;;;;;4967968;28;21039;-76
2022/03/24 15:36:16;;;;;;;21.23;13.13;;;24.30;48.80;;;;;;4967529;28;20488;-77
2022/03/24 15:38:45;;;;;;;15.57;12.80;;;24.50;48.50;;;;;;4967615;28;20584;-79
2022/03/24 15:41:13;;;;;;;22.23;12.03;;;24.50;46.50;;;;;;4967773;28;20477;-79
2022/03/24 15:43:42;;;;;;;13.63;12.03;;;24.60;46.60;;;;;;4967518;28;20949;-75
2022/03/24 15:46:09;;;;;;;14.00;12.50;;;24.60;46.10;;;;;;4967584;28;20543;-75
2022/03/24 15:48:39;;;;;;;16.57;11.80;;;24.60;46.60;;;;;;4967252;28;20460;-76
2022/03/24 15:51:06;;;;;;;16.00;12.53;;;24.80;48.00;;;;;;4966716;28;21354;-77
2022/03/24 15:53:33;;;;;;;18.93;12.80;;;24.80;47.20;;;;;;4966335;28;21284;-75
2022/03/24 15:56:00;;;;;;;20.20;13.20;;;24.90;48.00;;;;;;4968697;28;20969;-76
2022/03/24 15:58:27;;;;;;;20.97;12.40;;;24.90;46.60;;;;;;4967238;28;20540;-75
2022/03/24 16:00:55;;;;;;;17.17;13.50;;;24.90;47.00;;;;;;4966839;28;20494;-78
2022/03/24 16:03:22;;;;;;;14.83;12.07;;;24.90;47.10;;;;;;4967694;28;20463;-76
2022/03/24 16:05:49;;;;;;;17.80;12.00;;;24.90;47.00;;;;;;4967608;28;20591;-76
2022/03/24 16:08:17;;;;;;;17.07;12.60;;;24.90;47.50;;;;;;4966856;28;20460;-75
2022/03/24 16:10:44;;;;;;;14.20;10.93;;;24.90;47.50;;;;;;4964037;28;20473;-76
2022/03/24 16:13:11;;;;;;;13.40;10.47;;;24.90;47.20;;;;;;4964369;28;20539;-77
2022/03/24 16:15:38;;;;;;;14.50;11.63;;;24.90;47.10;;;;;;4965425;28;20547;-76
2022/03/24 16:18:07;;;;;;;14.03;11.70;;;24.90;47.10;;;;;;4964636;28;20826;-76
2022/03/24 16:20:34;;;;;;;15.33;11.47;;;24.80;46.80;;;;;;4967322;28;20480;-76
2022/03/24 16:23:01;;;;;;;19.80;11.93;;;24.60;47.20;;;;;;4960958;28;20448;-76
2022/03/24 16:25:28;;;;;;;13.80;11.03;;;24.50;47.40;;;;;;4966880;28;20499;-76
2022/03/24 16:27:56;;;;;;;15.20;11.40;;;24.40;48.70;;;;;;4965672;28;20463;-75
2022/03/24 16:30:23;;;;;;;16.33;11.83;;;24.20;46.70;;;;;;4967096;28;20464;-76
2022/03/24 16:32:50;;;;;;;13.70;12.20;;;24.10;47.70;;;;;;4966959;28;20977;-75
2022/03/24 16:35:18;;;;;;;14.40;11.93;;;24.10;48.10;;;;;;4966936;28;20461;-78
2022/03/24 16:37:45;;;;;;;13.90;11.90;;;23.90;47.60;;;;;;4964754;28;20453;-76
2022/03/24 16:40:13;;;;;;;15.37;11.20;;;23.80;48.80;;;;;;4967756;28;20467;-75
2022/03/24 16:42:40;;;;;;;13.37;11.70;;;23.60;47.40;;;;;;4967598;28;20480;-76
2022/03/24 16:45:08;;;;;;;16.63;11.57;;;23.40;47.40;;;;;;4967845;28;20485;-75
2022/03/24 16:47:35;;;;;;;16.50;10.07;;;23.30;48.60;;;;;;4966825;28;20543;-76
2022/03/24 16:50:03;;;;;;;13.67;10.93;;;23.20;48.90;;;;;;4967579;28;20457;-75
2022/03/24 16:52:31;;;;;;;14.67;10.77;;;23.00;49.20;;;;;;4967257;28;20473;-76
2022/03/24 16:54:59;;;;;;;13.17;10.90;;;22.80;48.90;;;;;;4967121;28;20457;-77
2022/03/24 16:57:26;;;;;;;16.40;11.73;;;22.60;49.30;;;;;;4966947;28;20452;-79
2022/03/24 16:59:53;;;;;;;11.40;10.20;;;22.40;48.60;;;;;;4967828;28;20535;-76
2022/03/24 17:02:19;;;;;;;13.17;10.80;;;22.20;49.00;;;;;;4965920;28;20539;-76
2022/03/24 17:04:46;;;;;;;14.17;10.13;;;22.00;49.50;;;;;;4951744;28;20505;-76
2022/03/24 17:07:13;;;;;;;12.63;9.77;;;21.90;49.20;;;;;;4948347;28;20477;-76
2022/03/24 17:09:42;;;;;;;13.53;9.80;;;21.80;49.30;;;;;;4957755;28;20457;-77
2022/03/24 17:12:09;;;;;;;9.77;8.77;;;21.60;49.40;;;;;;4955791;28;20556;-76
2022/03/24 17:14:36;;;;;;;11.40;8.93;;;21.40;49.00;;;;;;4950428;28;20456;-76
2022/03/24 17:17:04;;;;;;;12.20;9.30;;;21.20;49.80;;;;;;4954958;28;20445;-78
2022/03/24 17:19:31;;;;;;;11.13;9.40;;;21.10;50.10;;;;;;4955114;28;20453;-76
2022/03/24 17:21:58;;;;;;;13.10;9.23;;;21.00;50.60;;;;;;4966789;28;20567;-78
2022/03/24 17:24:26;;;;;;;11.57;9.43;;;20.90;51.00;;;;;;4966689;28;20461;-76
2022/03/24 17:26:56;;;;;;;18.10;8.87;;;20.80;51.00;;;;;;4966284;28;20534;-79
2022/03/24 17:29:23;;;;;;;15.17;9.00;;;20.70;51.30;;;;;;4967139;28;20531;-76
2022/03/24 17:31:50;;;;;;;12.57;8.97;;;20.50;52.20;;;;;;4967155;28;20482;-67
2022/03/24 17:34:17;;;;;;;28.37;10.03;;;20.40;52.90;;;;;;4967104;28;20978;-79
2022/03/24 17:36:44;;;;;;;19.00;9.57;;;20.20;52.20;;;;;;4967362;28;20504;-78
2022/03/24 17:39:11;;;;;;;13.60;8.60;;;20.10;52.40;;;;;;4967229;28;20449;-80
2022/03/24 17:41:38;;;;;;;13.53;8.70;;;19.90;52.70;;;;;;4967631;28;20858;-79
2022/03/24 17:44:09;;;;;;;10.73;9.10;;;19.80;52.70;;;;;;4967269;28;20480;-78